Time;durP1;ratioP1;P1;durP2;ratioP2;P2;SDS_P1;SDS_P2;PMS_P1;PMS_P2;Temp;Humidity;BMP_temperature;BMP_pressure;BME280_temperature;BME280_humidity;BME280_pressure;Samples;Min_cycle;Max_cycle;Signal;HPM_P1;HPM_P2
2022/09/10 00:00:46;;;;;;;22.00;6.38;;;;;;;;;;5091208;28;20454;-75
2022/09/10 00:03:12;;;;;;;13.18;6.03;;;;;;;;;;5091472;28;20035;-75
2022/09/10 00:05:39;;;;;;;12.77;5.78;;;;;;;;;;5073201;28;20024;-75
2022/09/10 00:08:06;;;;;;;12.70;5.80;;;;;;;;;;5091625;28;20031;-75
2022/09/10 00:10:37;;;;;;;15.70;6.38;;;;;;;;;;5091359;28;20119;-75
2022/09/10 00:13:03;;;;;;;11.07;5.68;;;;;;;;;;5091315;28;20055;-75
2022/09/10 00:15:29;;;;;;;12.80;5.95;;;;;;;;;;5091536;28;20043;-75
2022/09/10 00:17:55;;;;;;;15.57;5.55;;;;;;;;;;5084926;28;20464;-75
2022/09/10 00:20:21;;;;;;;15.77;5.80;;;;;;;;;;5110552;28;20038;-75
2022/09/10 00:22:48;;;;;;;13.05;6.93;;;;;;;;;;5111705;28;20403;-75
2022/09/10 00:25:14;;;;;;;12.27;6.05;;;;;;;;;;5111495;28;20121;-75
2022/09/10 00:27:40;;;;;;;12.18;5.60;;;;;;;;;;5111635;28;20016;-75
2022/09/10 00:30:06;;;;;;;13.75;5.65;;;;;;;;;;5092966;28;20154;-75
2022/09/10 00:32:33;;;;;;;16.33;6.50;;;;;;;;;;5111491;28;20030;-75
2022/09/10 00:35:00;;;;;;;18.70;6.28;;;;;;;;;;5111500;28;20343;-75
2022/09/10 00:37:26;;;;;;;19.67;6.05;;;;;;;;;;5111663;28;20063;-75
2022/09/10 00:39:52;;;;;;;15.43;6.95;;;;;;;;;;5111384;28;20038;-75
2022/09/10 00:42:18;;;;;;;19.80;7.13;;;;;;;;;;5111491;28;20051;-75
2022/09/10 00:44:44;;;;;;;16.80;6.68;;;;;;;;;;5092843;28;20020;-75
2022/09/10 00:47:23;;;;;;;18.85;5.97;;;;;;;;;;5111546;28;20016;-75
2022/09/10 00:49:53;;;;;;;19.45;7.05;;;;;;;;;;5092965;28;20393;-75
2022/09/10 00:52:19;;;;;;;18.83;6.55;;;;;;;;;;5111706;28;20111;-75
2022/09/10 00:54:46;;;;;;;19.00;6.50;;;;;;;;;;5111323;28;20148;-75
2022/09/10 00:57:15;;;;;;;21.60;7.93;;;;;;;;;;5111533;28;20553;-75
2022/09/10 00:59:43;;;;;;;18.00;8.00;;;;;;;;;;5111270;28;20031;-75
2022/09/10 01:02:10;;;;;;;25.58;9.63;;;;;;;;;;5111385;28;20168;-75
2022/09/10 01:04:38;;;;;;;17.70;9.30;;;;;;;;;;5111391;28;20027;-75
2022/09/10 01:07:04;;;;;;;23.65;9.52;;;;;;;;;;5111474;28;20019;-75
2022/09/10 01:09:31;;;;;;;16.35;9.38;;;;;;;;;;5092901;28;20035;-75
2022/09/10 01:12:09;;;;;;;19.20;9.57;;;;;;;;;;5111142;28;20085;-75
2022/09/10 01:14:36;;;;;;;19.13;9.40;;;;;;;;;;5111305;28;20486;-75
2022/09/10 01:17:02;;;;;;;20.85;10.13;;;;;;;;;;5111143;28;20049;-75
2022/09/10 01:19:55;;;;;;;17.33;9.77;;;;;;;;;;5111063;28;20393;-75
2022/09/10 01:22:44;;;;;;;25.90;10.68;;;;;;;;;;5106966;28;20032;-75
2022/09/10 01:25:21;;;;;;;20.92;10.23;;;;;;;;;;5111059;28;20526;-75
2022/09/10 01:27:50;;;;;;;21.58;10.32;;;;;;;;;;5111323;28;20031;-74
2022/09/10 01:30:19;;;;;;;25.00;10.70;;;;;;;;;;5110976;28;20354;-75
2022/09/10 01:33:06;;;;;;;19.42;10.85;;;;;;;;;;5113786;28;20457;-75
2022/09/10 01:35:35;;;;;;;18.98;10.05;;;;;;;;;;5115064;28;20031;-74
2022/09/10 01:38:05;;;;;;;26.30;11.15;;;;;;;;;;5114880;28;20359;-75
2022/09/10 01:40:32;;;;;;;19.80;10.95;;;;;;;;;;5094462;28;20107;-75
2022/09/10 01:43:05;;;;;;;19.48;10.50;;;;;;;;;;5094369;28;20017;-75
2022/09/10 01:45:53;;;;;;;24.08;12.07;;;;;;;;;;5075973;28;20024;-75
2022/09/10 01:48:33;;;;;;;24.75;12.07;;;;;;;;;;5077843;28;20107;-75
2022/09/10 01:50:59;;;;;;;26.38;12.30;;;;;;;;;;5094290;28;20066;-75
2022/09/10 01:53:29;;;;;;;25.52;13.52;;;;;;;;;;5094300;28;20028;-75
2022/09/10 01:55:58;;;;;;;30.35;14.60;;;;;;;;;;5094063;28;20533;-75
2022/09/10 01:58:35;;;;;;;24.83;14.57;;;;;;;;;;5094045;28;20115;-75
2022/09/10 02:01:10;;;;;;;26.30;14.35;;;;;;;;;;5093894;28;20097;-75
2022/09/10 02:03:38;;;;;;;26.15;12.95;;;;;;;;;;5093935;28;20062;-75
2022/09/10 02:06:06;;;;;;;27.63;13.93;;;;;;;;;;5094072;28;20024;-75
2022/09/10 02:08:33;;;;;;;28.95;13.95;;;;;;;;;;5093952;28;20024;-75
2022/09/10 02:11:05;;;;;;;28.70;14.50;;;;;;;;;;5093811;28;20024;-75
2022/09/10 02:13:32;;;;;;;25.80;13.68;;;;;;;;;;5075374;28;20051;-74
2022/09/10 02:15:58;;;;;;;27.50;15.32;;;;;;;;;;5093500;28;20024;-75
2022/09/10 02:18:25;;;;;;;34.40;15.13;;;;;;;;;;5109733;28;20023;-75
2022/09/10 02:20:51;;;;;;;36.65;16.38;;;;;;;;;;5114000;28;20031;-75
2022/09/10 02:23:20;;;;;;;27.85;15.05;;;;;;;;;;5113890;28;20382;-75
2022/09/10 02:25:48;;;;;;;28.77;15.73;;;;;;;;;;5113822;28;20377;-74
2022/09/10 02:28:14;;;;;;;28.50;15.75;;;;;;;;;;5114026;28;20023;-75
2022/09/10 02:30:40;;;;;;;27.30;15.80;;;;;;;;;;5113750;28;20024;-75
2022/09/10 02:33:06;;;;;;;30.42;17.30;;;;;;;;;;5113708;28;20392;-75
2022/09/10 02:35:32;;;;;;;33.80;16.83;;;;;;;;;;5095411;28;20020;-74
2022/09/10 02:37:58;;;;;;;35.40;16.65;;;;;;;;;;5113551;28;20030;-75
2022/09/10 02:40:26;;;;;;;33.05;18.38;;;;;;;;;;5113508;28;20094;-74
2022/09/10 02:42:54;;;;;;;36.53;17.80;;;;;;;;;;5113115;28;20103;-74
2022/09/10 02:45:20;;;;;;;33.78;17.77;;;;;;;;;;5113218;28;20030;-75
2022/09/10 02:47:47;;;;;;;34.42;18.13;;;;;;;;;;5095039;28;20036;-75
2022/09/10 02:50:14;;;;;;;36.17;17.88;;;;;;;;;;5113398;28;20023;-74
2022/09/10 02:52:41;;;;;;;38.40;18.45;;;;;;;;;;5113593;28;20489;-75
2022/09/10 02:55:07;;;;;;;40.40;18.90;;;;;;;;;;5104796;28;20046;-75
2022/09/10 02:57:33;;;;;;;38.45;19.92;;;;;;;;;;5092959;28;20039;-75
2022/09/10 03:00:00;;;;;;;28.33;16.80;;;;;;;;;;5092622;28;20035;-75
2022/09/10 03:02:26;;;;;;;32.95;18.17;;;;;;;;;;5092785;28;20378;-75
2022/09/10 03:04:52;;;;;;;34.67;18.05;;;;;;;;;;5092745;28;20373;-74
2022/09/10 03:07:19;;;;;;;32.08;17.40;;;;;;;;;;5092760;28;20024;-75
2022/09/10 03:09:45;;;;;;;30.42;18.65;;;;;;;;;;5092485;28;20496;-75
2022/09/10 03:12:12;;;;;;;37.63;19.95;;;;;;;;;;5092638;28;20048;-75
2022/09/10 03:14:38;;;;;;;37.30;20.10;;;;;;;;;;5092604;28;20130;-75
2022/09/10 03:17:05;;;;;;;32.97;18.52;;;;;;;;;;5092466;28;20028;-75
2022/09/10 03:19:31;;;;;;;40.65;19.92;;;;;;;;;;5092385;28;20510;-75
2022/09/10 03:21:57;;;;;;;33.40;19.20;;;;;;;;;;5111105;28;20110;-74
2022/09/10 03:24:24;;;;;;;35.00;19.42;;;;;;;;;;5112841;28;20020;-75
2022/09/10 03:26:50;;;;;;;32.70;19.83;;;;;;;;;;5094142;28;20024;-75
2022/09/10 03:29:16;;;;;;;36.55;19.70;;;;;;;;;;5112718;28;20052;-75
2022/09/10 03:31:43;;;;;;;38.75;20.13;;;;;;;;;;5112553;28;20035;-74
2022/09/10 03:34:13;;;;;;;37.42;21.08;;;;;;;;;;5112377;28;20397;-75
2022/09/10 03:36:39;;;;;;;26.83;17.77;;;;;;;;;;5094111;28;20031;-75
2022/09/10 03:39:05;;;;;;;31.85;19.83;;;;;;;;;;5090463;28;20384;-75
2022/09/10 03:41:32;;;;;;;37.78;19.75;;;;;;;;;;5092055;28;20461;-75
2022/09/10 03:43:58;;;;;;;34.70;19.25;;;;;;;;;;5092132;28;20020;-74
2022/09/10 03:46:24;;;;;;;41.95;20.25;;;;;;;;;;5091918;28;20028;-75
2022/09/10 03:48:50;;;;;;;37.25;21.48;;;;;;;;;;5091888;28;20020;-75
2022/09/10 03:51:16;;;;;;;32.70;19.35;;;;;;;;;;5073757;28;20080;-75
2022/09/10 03:53:43;;;;;;;35.67;20.55;;;;;;;;;;5091800;28;20028;-75
2022/09/10 03:56:10;;;;;;;39.03;22.10;;;;;;;;;;5091625;28;20032;-75
2022/09/10 03:58:36;;;;;;;38.33;21.27;;;;;;;;;;5091644;28;20027;-75
2022/09/10 04:01:03;;;;;;;37.00;20.90;;;;;;;;;;5091452;28;20024;-75
2022/09/10 04:03:29;;;;;;;39.35;21.60;;;;;;;;;;5091644;28;20031;-75
2022/09/10 04:05:55;;;;;;;34.40;19.20;;;;;;;;;;5073262;28;20118;-74
2022/09/10 04:08:22;;;;;;;40.03;21.00;;;;;;;;;;5091365;28;20020;-75
2022/09/10 04:10:48;;;;;;;36.55;21.00;;;;;;;;;;5091344;28;20485;-76
2022/09/10 04:13:14;;;;;;;36.65;20.52;;;;;;;;;;5091082;28;20110;-76
2022/09/10 04:15:44;;;;;;;37.40;20.15;;;;;;;;;;5091193;28;20060;-75
2022/09/10 04:18:10;;;;;;;35.80;21.00;;;;;;;;;;5086993;28;20038;-76
2022/09/10 04:20:37;;;;;;;38.35;19.70;;;;;;;;;;5111611;28;20406;-75
2022/09/10 04:23:04;;;;;;;39.58;20.80;;;;;;;;;;5111613;28;20016;-75
2022/09/10 04:25:30;;;;;;;32.50;19.15;;;;;;;;;;5111634;28;20034;-75
2022/09/10 04:27:56;;;;;;;40.15;20.67;;;;;;;;;;5093096;28;20032;-75
2022/09/10 04:30:22;;;;;;;36.75;19.10;;;;;;;;;;5111485;28;20100;-75
2022/09/10 04:32:49;;;;;;;35.88;19.55;;;;;;;;;;5111657;28;20019;-75
2022/09/10 04:35:15;;;;;;;40.72;20.35;;;;;;;;;;5111681;28;20024;-75
2022/09/10 04:37:41;;;;;;;29.77;18.70;;;;;;;;;;5111770;28;20023;-75
2022/09/10 04:40:08;;;;;;;31.10;18.48;;;;;;;;;;5111573;28;20034;-76
2022/09/10 04:42:34;;;;;;;34.85;19.50;;;;;;;;;;5111621;28;20032;-75
2022/09/10 04:45:00;;;;;;;33.33;19.92;;;;;;;;;;5111403;28;20020;-75
2022/09/10 04:47:26;;;;;;;36.05;19.60;;;;;;;;;;5111391;28;20020;-75
2022/09/10 04:49:52;;;;;;;35.60;19.98;;;;;;;;;;5111394;28;20020;-75
2022/09/10 04:52:20;;;;;;;29.58;18.90;;;;;;;;;;5111829;28;20023;-74
2022/09/10 04:54:46;;;;;;;33.83;19.70;;;;;;;;;;5111022;28;20131;-75
2022/09/10 04:57:13;;;;;;;33.10;19.55;;;;;;;;;;5111416;28;20485;-75
2022/09/10 04:59:40;;;;;;;34.10;19.27;;;;;;;;;;5111359;28;20054;-75
2022/09/10 05:02:08;;;;;;;38.05;20.30;;;;;;;;;;5111190;28;20031;-75
2022/09/10 05:04:34;;;;;;;35.20;19.42;;;;;;;;;;5093064;28;20338;-75
2022/09/10 05:07:00;;;;;;;30.13;19.30;;;;;;;;;;5094595;28;20385;-75
2022/09/10 05:09:30;;;;;;;30.48;19.17;;;;;;;;;;5115458;28;20081;-75
2022/09/10 05:11:56;;;;;;;29.48;18.85;;;;;;;;;;5115203;28;20054;-75
2022/09/10 05:14:24;;;;;;;34.30;19.15;;;;;;;;;;5115488;28;20035;-75
2022/09/10 05:16:50;;;;;;;32.25;18.08;;;;;;;;;;5115206;28;20038;-75
2022/09/10 05:19:16;;;;;;;28.15;18.38;;;;;;;;;;5115250;28;20019;-75
2022/09/10 05:21:47;;;;;;;33.85;18.52;;;;;;;;;;5115154;28;20028;-75
2022/09/10 05:24:13;;;;;;;33.47;18.63;;;;;;;;;;5115095;28;20122;-75
2022/09/10 05:26:40;;;;;;;26.77;17.08;;;;;;;;;;5115032;28;20027;-74
2022/09/10 05:29:06;;;;;;;28.00;17.92;;;;;;;;;;5115155;28;20034;-75
2022/09/10 05:31:33;;;;;;;28.23;16.95;;;;;;;;;;5114933;28;20019;-75
2022/09/10 05:34:00;;;;;;;30.90;17.15;;;;;;;;;;5114908;28;20407;-75
2022/09/10 05:36:26;;;;;;;26.20;16.02;;;;;;;;;;5096652;28;20431;-75
2022/09/10 05:38:53;;;;;;;23.27;15.68;;;;;;;;;;5114744;28;20076;-75
2022/09/10 05:41:20;;;;;;;23.77;16.15;;;;;;;;;;5114815;28;20036;-75
2022/09/10 05:43:46;;;;;;;25.13;15.43;;;;;;;;;;5114819;28;20474;-75
2022/09/10 05:46:13;;;;;;;22.73;15.30;;;;;;;;;;5114648;28;20027;-76
2022/09/10 05:48:39;;;;;;;25.58;14.73;;;;;;;;;;5114768;28;20461;-75
2022/09/10 05:51:06;;;;;;;20.25;14.57;;;;;;;;;;5114602;28;20024;-75
2022/09/10 05:53:32;;;;;;;21.52;13.93;;;;;;;;;;5114582;28;20488;-75
2022/09/10 05:55:58;;;;;;;23.30;13.13;;;;;;;;;;5114582;28;20043;-75
2022/09/10 05:58:26;;;;;;;21.20;13.23;;;;;;;;;;5114510;28;20503;-75
2022/09/10 06:00:53;;;;;;;18.63;13.25;;;;;;;;;;5114493;28;20095;-75
2022/09/10 06:03:20;;;;;;;17.65;11.98;;;;;;;;;;5095977;28;20023;-74
2022/09/10 06:05:50;;;;;;;20.63;12.73;;;;;;;;;;5114379;28;20020;-75
2022/09/10 06:08:22;;;;;;;23.35;14.25;;;;;;;;;;5114311;28;20418;-75
2022/09/10 06:10:55;;;;;;;20.20;12.63;;;;;;;;;;5114042;28;20024;-75
2022/09/10 06:13:21;;;;;;;18.23;12.32;;;;;;;;;;5114094;28;20036;-75
2022/09/10 06:15:47;;;;;;;20.33;12.18;;;;;;;;;;5114208;28;20016;-74
2022/09/10 06:18:13;;;;;;;16.92;12.02;;;;;;;;;;5098048;28;20389;-75
2022/09/10 06:20:39;;;;;;;15.98;10.82;;;;;;;;;;5094849;28;20032;-75
2022/09/10 06:23:05;;;;;;;16.42;10.80;;;;;;;;;;5113885;28;20036;-75
2022/09/10 06:25:31;;;;;;;13.32;8.70;;;;;;;;;;5113879;28;20023;-75
2022/09/10 06:27:57;;;;;;;10.18;7.90;;;;;;;;;;5113848;28;20136;-75
2022/09/10 06:30:23;;;;;;;10.25;7.45;;;;;;;;;;5113706;28;20020;-75
2022/09/10 06:32:49;;;;;;;8.23;6.72;;;;;;;;;;5113601;28;20024;-75
2022/09/10 06:35:15;;;;;;;10.30;6.20;;;;;;;;;;5095082;28;20085;-75
2022/09/10 06:37:42;;;;;;;7.82;5.55;;;;;;;;;;5113708;28;20093;-75
2022/09/10 06:40:08;;;;;;;8.32;6.05;;;;;;;;;;5113430;28;20031;-75
2022/09/10 06:42:34;;;;;;;9.90;6.15;;;;;;;;;;5095202;28;20023;-75
2022/09/10 06:45:00;;;;;;;10.77;5.93;;;;;;;;;;5113433;28;20016;-75
2022/09/10 06:47:26;;;;;;;8.75;6.03;;;;;;;;;;5113590;28;20096;-75
2022/09/10 06:49:52;;;;;;;10.20;6.53;;;;;;;;;;5113432;28;20027;-75
2022/09/10 06:52:18;;;;;;;9.32;6.30;;;;;;;;;;5113790;28;20103;-75
2022/09/10 06:54:44;;;;;;;11.65;6.88;;;;;;;;;;5108005;28;20027;-75
2022/09/10 06:57:10;;;;;;;12.80;7.68;;;;;;;;;;5092825;28;20411;-74
2022/09/10 06:59:37;;;;;;;10.48;6.22;;;;;;;;;;5092536;28;20032;-75
2022/09/10 07:02:03;;;;;;;14.32;6.53;;;;;;;;;;5092532;28;20023;-75
2022/09/10 07:04:29;;;;;;;11.68;5.80;;;;;;;;;;5092715;28;20024;-75
2022/09/10 07:06:57;;;;;;;10.13;5.70;;;;;;;;;;5092988;28;20125;-75
2022/09/10 07:09:23;;;;;;;7.80;5.35;;;;;;;;;;5092839;28;20028;-75
2022/09/10 07:11:49;;;;;;;8.73;6.07;;;;;;;;;;5092572;28;20043;-75
2022/09/10 07:14:16;;;;;;;9.20;5.68;;;;;;;;;;5074499;28;20028;-75
2022/09/10 07:16:43;;;;;;;9.55;6.43;;;;;;;;;;5092805;28;20024;-75
2022/09/10 07:19:12;;;;;;;11.98;6.47;;;;;;;;;;5074426;28;20032;-75
2022/09/10 07:21:38;;;;;;;9.77;5.88;;;;;;;;;;5100169;28;20028;-75
2022/09/10 07:24:04;;;;;;;10.32;6.55;;;;;;;;;;5113005;28;20020;-75
2022/09/10 07:26:30;;;;;;;9.32;5.63;;;;;;;;;;5112822;28;20072;-75
2022/09/10 07:28:57;;;;;;;9.23;6.22;;;;;;;;;;5112728;28;20107;-75
2022/09/10 07:31:32;;;;;;;7.28;6.00;;;;;;;;;;5112523;28;20019;-75
2022/09/10 07:33:58;;;;;;;7.05;5.50;;;;;;;;;;5112757;28;20035;-75
2022/09/10 07:36:24;;;;;;;8.70;6.70;;;;;;;;;;5112628;28;20038;-75
2022/09/10 07:38:56;;;;;;;7.97;6.20;;;;;;;;;;5094231;28;20107;-75
2022/09/10 07:41:22;;;;;;;14.38;7.35;;;;;;;;;;5112575;28;20035;-74
2022/09/10 07:43:52;;;;;;;12.82;7.55;;;;;;;;;;5112557;28;20055;-75
2022/09/10 07:46:19;;;;;;;10.60;6.95;;;;;;;;;;5112423;28;20019;-75
2022/09/10 07:48:47;;;;;;;10.88;7.22;;;;;;;;;;5112570;28;20019;-75
2022/09/10 07:51:17;;;;;;;10.63;7.30;;;;;;;;;;5112769;28;20151;-75
2022/09/10 07:53:43;;;;;;;13.00;8.70;;;;;;;;;;5112336;28;20103;-75
2022/09/10 07:56:10;;;;;;;15.27;9.88;;;;;;;;;;5112283;28;20031;-75
2022/09/10 07:58:37;;;;;;;14.15;8.85;;;;;;;;;;5112307;28;20095;-75
2022/09/10 08:01:07;;;;;;;14.65;8.38;;;;;;;;;;5112064;28;20481;-75
2022/09/10 08:03:34;;;;;;;14.23;9.20;;;;;;;;;;5112304;28;20024;-75
2022/09/10 08:06:03;;;;;;;15.00;9.25;;;;;;;;;;5112252;28;20119;-74
2022/09/10 08:08:30;;;;;;;11.68;8.10;;;;;;;;;;5093771;28;20126;-75
2022/09/10 08:11:03;;;;;;;14.80;9.15;;;;;;;;;;5112231;28;20020;-75
2022/09/10 08:13:31;;;;;;;12.27;8.25;;;;;;;;;;5112075;28;20055;-75
2022/09/10 08:15:57;;;;;;;11.50;8.52;;;;;;;;;;5112074;28;20019;-75
2022/09/10 08:18:23;;;;;;;12.32;8.73;;;;;;;;;;5111953;28;20023;-75
2022/09/10 08:20:55;;;;;;;11.23;8.18;;;;;;;;;;5112058;28;20327;-75
2022/09/10 08:23:21;;;;;;;15.98;8.05;;;;;;;;;;5111856;28;20019;-75
2022/09/10 08:25:50;;;;;;;13.13;8.15;;;;;;;;;;5093572;28;20019;-75
2022/09/10 08:28:21;;;;;;;11.75;8.07;;;;;;;;;;5111893;28;20039;-75
2022/09/10 08:30:57;;;;;;;15.05;8.45;;;;;;;;;;5111989;28;20026;-75
2022/09/10 08:33:23;;;;;;;9.90;7.50;;;;;;;;;;5111876;28;20098;-75
2022/09/10 08:35:56;;;;;;;12.43;8.30;;;;;;;;;;5111962;28;20026;-75
2022/09/10 08:38:25;;;;;;;13.50;8.50;;;;;;;;;;5111774;28;20027;-75
2022/09/10 08:40:53;;;;;;;13.85;9.68;;;;;;;;;;5111800;28;20355;-75
2022/09/10 08:43:24;;;;;;;11.98;8.55;;;;;;;;;;5115718;28;20055;-75
2022/09/10 08:45:51;;;;;;;12.80;9.68;;;;;;;;;;5116003;28;20098;-76
2022/09/10 08:48:18;;;;;;;13.82;9.60;;;;;;;;;;5116012;28;20023;-75
2022/09/10 08:50:47;;;;;;;14.38;9.55;;;;;;;;;;5116074;28;20043;-75
2022/09/10 08:53:13;;;;;;;16.77;10.88;;;;;;;;;;5115981;28;20039;-75
2022/09/10 08:55:40;;;;;;;13.75;10.85;;;;;;;;;;5115707;28;20024;-75
2022/09/10 08:58:41;;;;;;;15.98;11.00;;;;;;;;;;5115820;28;20151;-75
2022/09/10 09:01:13;;;;;;;16.33;11.68;;;;;;;;;;5012781;28;20496;-75
2022/09/10 09:03:46;;;;;;;13.98;10.55;;;;;;;;;;5099152;28;20036;-75
2022/09/10 09:06:24;;;;;;;18.00;13.27;;;;;;;;;;5115689;28;20374;-76
2022/09/10 09:08:51;;;;;;;19.50;14.07;;;;;;;;;;5115702;28;20027;-75
2022/09/10 09:11:35;;;;;;;23.20;15.77;;;;;;;;;;5115523;28;20291;-75
2022/09/10 09:14:04;;;;;;;24.85;15.07;;;;;;;;;;5115478;28;20458;-75
2022/09/10 09:16:46;;;;;;;19.55;14.55;;;;;;;;;;5115408;28;20054;-75
2022/09/10 09:19:16;;;;;;;25.20;14.70;;;;;;;;;;5115610;28;20103;-75
2022/09/10 09:21:48;;;;;;;19.00;14.20;;;;;;;;;;5115288;28;20481;-75
2022/09/10 09:24:26;;;;;;;19.00;13.27;;;;;;;;;;5115209;28;20028;-75
2022/09/10 09:26:55;;;;;;;18.63;13.15;;;;;;;;;;5115205;28;20024;-75
2022/09/10 09:29:39;;;;;;;16.38;12.88;;;;;;;;;;5115168;28;20023;-75
2022/09/10 09:32:05;;;;;;;19.38;13.27;;;;;;;;;;5115035;28;20028;-75
2022/09/10 09:34:34;;;;;;;21.73;13.98;;;;;;;;;;5115197;28;20058;-75
2022/09/10 09:37:09;;;;;;;18.35;13.05;;;;;;;;;;5096827;28;20061;-75
2022/09/10 09:39:38;;;;;;;20.50;13.50;;;;;;;;;;5114978;28;20031;-75
2022/09/10 09:42:04;;;;;;;21.08;14.75;;;;;;;;;;5114971;28;20024;-75
2022/09/10 09:44:35;;;;;;;20.20;14.98;;;;;;;;;;5114965;28;20027;-75
2022/09/10 09:47:01;;;;;;;18.63;13.88;;;;;;;;;;5114897;28;20016;-76
2022/09/10 09:49:27;;;;;;;17.65;14.50;;;;;;;;;;5114878;28;20024;-75
2022/09/10 09:51:53;;;;;;;16.73;13.70;;;;;;;;;;5115320;28;20059;-76
2022/09/10 09:54:26;;;;;;;20.55;13.90;;;;;;;;;;5114482;28;20031;-76
2022/09/10 09:56:53;;;;;;;14.65;12.30;;;;;;;;;;5114645;28;20019;-76
2022/09/10 09:59:34;;;;;;;16.08;12.60;;;;;;;;;;5114541;28;20019;-75
2022/09/10 10:02:20;;;;;;;16.13;12.02;;;;;;;;;;5114523;28;20026;-76
2022/09/10 10:04:54;;;;;;;18.58;12.07;;;;;;;;;;5114416;28;20094;-76
2022/09/10 10:07:30;;;;;;;17.27;12.30;;;;;;;;;;5114579;28;20101;-75
2022/09/10 10:09:56;;;;;;;19.65;11.63;;;;;;;;;;5114221;28;20080;-75
2022/09/10 10:12:22;;;;;;;12.68;10.13;;;;;;;;;;5114170;28;20044;-75
2022/09/10 10:14:48;;;;;;;11.68;8.63;;;;;;;;;;5114270;28;20031;-75
2022/09/10 10:17:28;;;;;;;12.88;7.97;;;;;;;;;;5114406;28;20157;-76
2022/09/10 10:19:59;;;;;;;16.00;9.65;;;;;;;;;;5114376;28;20562;-76
2022/09/10 10:22:26;;;;;;;11.82;8.00;;;;;;;;;;5114195;28;20023;-76
2022/09/10 10:24:53;;;;;;;8.38;6.93;;;;;;;;;;5114271;28;20415;-75
2022/09/10 10:27:29;;;;;;;8.80;7.00;;;;;;;;;;5114322;28;20034;-75
2022/09/10 10:29:57;;;;;;;8.40;6.43;;;;;;;;;;5114094;28;20096;-76
2022/09/10 10:32:26;;;;;;;9.13;4.97;;;;;;;;;;5095832;28;20497;-76
2022/09/10 10:35:02;;;;;;;6.07;4.43;;;;;;;;;;5114157;28;20153;-75
2022/09/10 10:37:46;;;;;;;7.25;4.38;;;;;;;;;;5114151;28;20106;-75
2022/09/10 10:40:18;;;;;;;9.13;4.40;;;;;;;;;;5113945;28;20063;-76
2022/09/10 10:42:47;;;;;;;5.80;4.68;;;;;;;;;;5113948;28;20031;-75
2022/09/10 10:45:29;;;;;;;7.80;4.97;;;;;;;;;;5113855;28;20046;-75
2022/09/10 10:47:58;;;;;;;5.93;3.67;;;;;;;;;;5113843;28;20040;-75
2022/09/10 10:50:34;;;;;;;5.32;3.58;;;;;;;;;;5113626;28;20099;-76
2022/09/10 10:53:10;;;;;;;8.10;3.58;;;;;;;;;;5095234;28;20552;-75
2022/09/10 10:55:46;;;;;;;4.00;2.72;;;;;;;;;;5113307;28;20107;-76
2022/09/10 10:58:19;;;;;;;3.92;2.70;;;;;;;;;;5113492;28;20042;-76
2022/09/10 11:01:17;;;;;;;3.72;2.55;;;;;;;;;;5113309;28;20019;-76
2022/09/10 11:03:47;;;;;;;7.93;2.72;;;;;;;;;;5068320;28;20032;-76
2022/09/10 11:06:15;;;;;;;5.90;2.88;;;;;;;;;;5113312;28;20106;-75
2022/09/10 11:08:49;;;;;;;3.85;2.80;;;;;;;;;;5113594;28;20366;-75
2022/09/10 11:11:20;;;;;;;7.47;2.55;;;;;;;;;;5113569;28;20023;-75
2022/09/10 11:13:53;;;;;;;5.10;2.53;;;;;;;;;;5113202;28;20039;-75
2022/09/10 11:16:22;;;;;;;5.60;2.88;;;;;;;;;;5113413;28;20363;-76
2022/09/10 11:19:07;;;;;;;3.63;2.83;;;;;;;;;;5113354;28;20478;-76
2022/09/10 11:21:52;;;;;;;4.22;3.13;;;;;;;;;;5113142;28;20035;-75
2022/09/10 11:24:18;;;;;;;3.72;2.38;;;;;;;;;;5092643;28;20020;-76
2022/09/10 11:26:47;;;;;;;3.78;2.28;;;;;;;;;;5092634;28;20028;-76
2022/09/10 11:29:36;;;;;;;1.90;1.63;;;;;;;;;;5092578;28;20024;-76
2022/09/10 11:32:06;;;;;;;2.15;1.60;;;;;;;;;;5092626;28;20049;-75
2022/09/10 11:34:46;;;;;;;3.13;1.60;;;;;;;;;;5092526;28;20059;-75
2022/09/10 11:37:12;;;;;;;1.90;1.52;;;;;;;;;;5092607;28;20054;-75
2022/09/10 11:39:42;;;;;;;4.03;1.98;;;;;;;;;;5105562;28;20392;-75
2022/09/10 11:42:20;;;;;;;1.83;1.50;;;;;;;;;;5094205;28;20027;-76
2022/09/10 11:45:03;;;;;;;2.70;1.50;;;;;;;;;;5112611;28;20019;-75
2022/09/10 11:47:36;;;;;;;2.33;1.85;;;;;;;;;;5094165;28;20111;-75
2022/09/10 11:50:09;;;;;;;4.43;1.98;;;;;;;;;;5112471;28;20016;-76
2022/09/10 11:52:36;;;;;;;3.55;2.20;;;;;;;;;;5112502;28;20070;-75
2022/09/10 11:55:03;;;;;;;3.65;2.20;;;;;;;;;;5112382;28;20028;-75
2022/09/10 11:57:30;;;;;;;2.53;2.03;;;;;;;;;;5112473;28;20020;-75
2022/09/10 11:59:59;;;;;;;3.13;2.10;;;;;;;;;;5112346;28;20207;-76
2022/09/10 12:02:28;;;;;;;2.20;1.90;;;;;;;;;;5112215;28;20494;-75
2022/09/10 12:05:11;;;;;;;4.03;1.40;;;;;;;;;;5112316;28;20023;-75
2022/09/10 12:07:41;;;;;;;2.00;1.45;;;;;;;;;;5112255;28;20024;-76
2022/09/10 12:10:28;;;;;;;4.55;1.40;;;;;;;;;;5093564;28;20548;-75
2022/09/10 12:12:55;;;;;;;1.77;1.42;;;;;;;;;;5112123;28;20039;-76
2022/09/10 12:15:30;;;;;;;2.03;1.60;;;;;;;;;;5112172;28;20020;-76
2022/09/10 12:18:16;;;;;;;2.05;1.40;;;;;;;;;;5112020;28;20023;-76
2022/09/10 12:20:51;;;;;;;2.65;1.58;;;;;;;;;;5112146;28;20517;-75
2022/09/10 12:23:21;;;;;;;3.25;1.90;;;;;;;;;;5111906;28;20031;-76
2022/09/10 12:25:56;;;;;;;3.53;2.08;;;;;;;;;;5111960;28;20018;-76
2022/09/10 12:28:40;;;;;;;2.65;1.75;;;;;;;;;;5112051;28;20157;-76
2022/09/10 12:31:07;;;;;;;3.42;2.05;;;;;;;;;;5112051;28;20034;-75
2022/09/10 12:33:44;;;;;;;5.15;1.80;;;;;;;;;;5111822;28;20016;-75
2022/09/10 12:36:33;;;;;;;2.25;1.45;;;;;;;;;;5111782;28;20028;-75
2022/09/10 12:39:18;;;;;;;1.98;1.10;;;;;;;;;;5064409;28;20393;-76
2022/09/10 12:41:44;;;;;;;1.70;1.30;;;;;;;;;;5111730;28;20038;-76
2022/09/10 12:44:26;;;;;;;3.30;1.48;;;;;;;;;;5111743;28;20016;-76
2022/09/10 12:47:11;;;;;;;1.55;1.02;;;;;;;;;;5111774;28;20073;-76
2022/09/10 12:49:48;;;;;;;0.80;0.55;;;;;;;;;;5111478;28;20473;-76
2022/09/10 12:52:26;;;;;;;4.40;0.68;;;;;;;;;;5112023;28;20031;-76
2022/09/10 12:55:07;;;;;;;0.70;0.50;;;;;;;;;;5111189;28;20613;-75
2022/09/10 12:57:39;;;;;;;2.13;0.98;;;;;;;;;;5111744;28;20036;-75
2022/09/10 13:00:14;;;;;;;6.00;1.30;;;;;;;;;;5111388;28;20027;-75
2022/09/10 13:02:44;;;;;;;2.28;1.33;;;;;;;;;;5111714;28;20028;-75
2022/09/10 13:05:20;;;;;;;2.65;1.38;;;;;;;;;;5111553;28;20058;-75
2022/09/10 13:07:50;;;;;;;1.85;1.45;;;;;;;;;;5111620;28;20020;-75
2022/09/10 13:10:24;;;;;;;2.20;1.60;;;;;;;;;;5111581;28;20326;-75
2022/09/10 13:12:55;;;;;;;3.10;1.60;;;;;;;;;;5092939;28;20048;-75
2022/09/10 13:15:23;;;;;;;3.83;1.88;;;;;;;;;;5111498;28;20455;-75
2022/09/10 13:17:50;;;;;;;2.10;1.80;;;;;;;;;;5111545;28;20027;-75
2022/09/10 13:20:22;;;;;;;3.38;1.85;;;;;;;;;;5092937;28;20050;-76
2022/09/10 13:22:54;;;;;;;3.30;2.00;;;;;;;;;;5111180;28;20024;-75
2022/09/10 13:25:26;;;;;;;4.00;2.50;;;;;;;;;;5111273;28;20094;-75
2022/09/10 13:27:52;;;;;;;6.85;3.10;;;;;;;;;;5112703;28;20322;-75
2022/09/10 13:30:20;;;;;;;3.95;2.40;;;;;;;;;;5115045;28;20020;-76
2022/09/10 13:32:51;;;;;;;4.13;2.20;;;;;;;;;;5115222;28;20058;-76
2022/09/10 13:35:20;;;;;;;4.43;3.37;;;;;;;;;;5115110;28;20049;-75
2022/09/10 13:38:05;;;;;;;6.18;2.80;;;;;;;;;;5115126;28;20034;-76
2022/09/10 13:40:43;;;;;;;4.00;2.60;;;;;;;;;;5076001;28;20024;-75
2022/09/10 13:43:10;;;;;;;5.40;3.28;;;;;;;;;;5094511;28;20031;-75
2022/09/10 13:45:58;;;;;;;4.28;2.55;;;;;;;;;;5094452;28;20386;-76
2022/09/10 13:48:29;;;;;;;5.85;2.53;;;;;;;;;;5094490;28;20036;-76
2022/09/10 13:50:58;;;;;;;3.00;1.95;;;;;;;;;;5094170;28;20099;-75
2022/09/10 13:53:26;;;;;;;7.60;2.35;;;;;;;;;;5094254;28;20417;-75
2022/09/10 13:55:59;;;;;;;3.67;2.35;;;;;;;;;;5094283;28;20020;-76
2022/09/10 13:58:28;;;;;;;4.68;2.40;;;;;;;;;;5094093;28;20523;-76
2022/09/10 14:00:59;;;;;;;2.63;2.15;;;;;;;;;;5075453;28;20062;-76
2022/09/10 14:03:36;;;;;;;3.25;1.95;;;;;;;;;;5094141;28;20378;-76
2022/09/10 14:06:03;;;;;;;3.95;1.90;;;;;;;;;;5094354;28;20031;-76
2022/09/10 14:08:29;;;;;;;5.88;1.60;;;;;;;;;;5094320;28;20023;-75
2022/09/10 14:10:56;;;;;;;5.53;2.15;;;;;;;;;;5094186;28;20380;-76
2022/09/10 14:13:29;;;;;;;5.10;2.03;;;;;;;;;;5093903;28;20180;-75
2022/09/10 14:15:57;;;;;;;6.18;2.30;;;;;;;;;;5093981;28;20016;-76
2022/09/10 14:18:25;;;;;;;5.53;1.95;;;;;;;;;;5109593;28;20024;-75
2022/09/10 14:20:52;;;;;;;2.50;1.70;;;;;;;;;;5114362;28;20023;-76
2022/09/10 14:23:18;;;;;;;3.47;1.73;;;;;;;;;;5095442;28;20384;-75
2022/09/10 14:25:45;;;;;;;2.72;1.55;;;;;;;;;;5114044;28;20147;-76
2022/09/10 14:28:22;;;;;;;4.32;2.30;;;;;;;;;;5113992;28;20028;-75
2022/09/10 14:30:49;;;;;;;5.65;2.28;;;;;;;;;;5113946;28;20027;-75
2022/09/10 14:33:34;;;;;;;5.40;2.20;;;;;;;;;;5114100;28;20016;-76
2022/09/10 14:36:14;;;;;;;5.00;2.40;;;;;;;;;;5114019;28;20028;-76
2022/09/10 14:38:41;;;;;;;5.32;2.08;;;;;;;;;;5113513;28;20073;-76
2022/09/10 14:41:19;;;;;;;6.18;2.50;;;;;;;;;;5113193;28;20034;-76
2022/09/10 14:43:45;;;;;;;4.60;1.90;;;;;;;;;;5113782;28;20107;-76